La Bolsa, New Mexico
Current Conditions -  °F | °C
As of 9:15 AM on Thursday 29 Jan 2015 (Local Time) from KLAM Reporting Station
Broken Clouds Broken Clouds  
Wind Chill: 34°   Ceiling: 11000
Heat Index: 40°   Visibility: 10mi
Dew Point: 27°   Wind: 10mph
Humidity: 60%   Direction: 200°SSW
Pressure: 30.44"   Gusts: NA
Location:  36.1441°N, 105.996°W
Report Text: KLAM 291615Z AUTO 20009KT 10SM BKN110 05/M03 A3044 RMK AO2 T00451027
Loading
Personal Weather Stations






























Interactive Weather Map New forecast layout! Learn more

10-Day Weather Forecast

Advertisements
Track Severe Weather on mobile